Time;durP1;ratioP1;P1;durP2;ratioP2;P2;SDS_P1;SDS_P2;PMS_P1;PMS_P2;Temp;Humidity;BMP_temperature;BMP_pressure;BME280_temperature;BME280_humidity;BME280_pressure;Samples;Min_cycle;Max_cycle;Signal;HPM_P1;HPM_P2
2020/02/23 00:00:47;;;;;;;5.8;2.4;;;;;;;11.73;74.27246;1013.2;;;;
2020/02/23 00:03:09;;;;;;;4.7;2.2;;;;;;;11.61;74.8252;1013.293;;;;
2020/02/23 00:05:35;;;;;;;5.9;2.5;;;;;;;11.76;74.27734;1013.209;;;;
2020/02/23 00:08:00;;;;;;;4.1;2;;;;;;;12.22;70.74707;1013.083;;;;
2020/02/23 00:10:25;;;;;;;6.2;2.5;;;;;;;11.52;75.69434;1013.057;;;;
2020/02/23 00:12:50;;;;;;;3;1.8;;;;;;;12.16;71.31152;1013.08;;;;
2020/02/23 00:15:15;;;;;;;5.3;2.5;;;;;;;11.78;73.64844;1013.158;;;;
2020/02/23 00:17:40;;;;;;;3.5;1.9;;;;;;;12.28;71.37695;1013.085;;;;
2020/02/23 00:20:05;;;;;;;5.4;2.2;;;;;;;11.79;75.21191;1013.125;;;;
2020/02/23 00:22:30;;;;;;;3.8;1.9;;;;;;;11.83;72.82031;1013.033;;;;
2020/02/23 00:24:56;;;;;;;5;2.2;;;;;;;11.74;73.96387;1013.065;;;;
2020/02/23 00:27:21;;;;;;;5.9;2.1;;;;;;;11.46;75.78613;1013.101;;;;
2020/02/23 00:29:46;;;;;;;4.4;2;;;;;;;11.77;73.36035;1013.135;;;;
2020/02/23 00:32:11;;;;;;;4.8;2;;;;;;;11.95;72.18457;1013.124;;;;
2020/02/23 00:34:36;;;;;;;4.5;2;;;;;;;11.57;75.14941;1013.16;;;;
2020/02/23 00:37:01;;;;;;;6;2;;;;;;;11.62;74.66699;1013.18;;;;
2020/02/23 00:39:27;;;;;;;4.1;2.1;;;;;;;12.08;72.5752;1013.058;;;;
2020/02/23 00:41:52;;;;;;;3.3;1.7;;;;;;;12.25;71.07324;1013.003;;;;
2020/02/23 00:44:17;;;;;;;5.7;1.9;;;;;;;11.96;73.26563;1013.128;;;;
2020/02/23 00:46:42;;;;;;;5.3;2.3;;;;;;;11.52;76.92188;1013.042;;;;
2020/02/23 00:49:07;;;;;;;4.1;2;;;;;;;11.66;73.74414;1013.051;;;;
2020/02/23 00:51:33;;;;;;;4.6;2.1;;;;;;;11.86;73.22656;1013.042;;;;
2020/02/23 00:53:58;;;;;;;4.4;2.2;;;;;;;11.32;77.4707;1013.043;;;;
2020/02/23 00:56:23;;;;;;;4.3;2;;;;;;;11.44;77.1582;1012.898;;;;
2020/02/23 00:58:48;;;;;;;3.9;2.2;;;;;;;11.74;74.10156;1012.836;;;;
2020/02/23 01:01:13;;;;;;;4.3;2.1;;;;;;;11.81;75.05469;1012.868;;;;
2020/02/23 01:03:38;;;;;;;4.2;1.9;;;;;;;12.33;70.38672;1012.741;;;;
2020/02/23 01:06:03;;;;;;;3.2;1.9;;;;;;;12.64;70.1709;1012.644;;;;
2020/02/23 01:08:29;;;;;;;4.5;2.1;;;;;;;12.23;72.48438;1012.839;;;;
2020/02/23 01:10:54;;;;;;;6.2;2.2;;;;;;;11.67;74.42285;1012.853;;;;
2020/02/23 01:13:19;;;;;;;5.1;2.2;;;;;;;11.57;75.53027;1012.859;;;;
2020/02/23 01:15:44;;;;;;;5;1.9;;;;;;;12.23;72.67969;1012.789;;;;
2020/02/23 01:18:09;;;;;;;3.9;1.8;;;;;;;12.24;70.84375;1012.741;;;;
2020/02/23 01:20:35;;;;;;;3.5;1.7;;;;;;;13.03;68.15039;1012.714;;;;
2020/02/23 01:23:00;;;;;;;6.1;2.1;;;;;;;12.26;71.9502;1012.744;;;;
2020/02/23 01:25:25;;;;;;;4.4;2.1;;;;;;;12.16;72.12891;1012.791;;;;
2020/02/23 01:27:50;;;;;;;4.2;2.1;;;;;;;11.92;75.21094;1012.906;;;;
2020/02/23 01:30:16;;;;;;;3.7;1.6;;;;;;;12.5;69.0332;1012.842;;;;
2020/02/23 01:32:41;;;;;;;4.3;1.9;;;;;;;12.24;72.33789;1012.706;;;;
2020/02/23 01:35:06;;;;;;;3.1;1.7;;;;;;;12.11;71.77539;1012.729;;;;
2020/02/23 01:37:31;;;;;;;6;2.3;;;;;;;12.09;73.80566;1012.823;;;;
2020/02/23 01:39:57;;;;;;;4.1;1.8;;;;;;;12.05;73.21094;1012.935;;;;
2020/02/23 01:42:22;;;;;;;3.1;1.7;;;;;;;12.5;70.24121;1012.926;;;;
2020/02/23 01:44:47;;;;;;;4.4;1.8;;;;;;;12.27;71.2041;1012.896;;;;
2020/02/23 01:47:12;;;;;;;4.8;1.8;;;;;;;12.14;72.19336;1012.871;;;;
2020/02/23 01:49:37;;;;;;;2.7;1.6;;;;;;;12;74.15625;1012.934;;;;
2020/02/23 01:52:02;;;;;;;5.1;2;;;;;;;12.01;73.55078;1012.995;;;;
2020/02/23 01:54:27;;;;;;;4.6;1.8;;;;;;;11.72;75.38281;1012.851;;;;
2020/02/23 01:56:52;;;;;;;4.1;2.1;;;;;;;11.84;73.90039;1012.828;;;;
2020/02/23 01:59:18;;;;;;;3.6;1.7;;;;;;;12.23;72.68262;1012.678;;;;
2020/02/23 02:01:43;;;;;;;6.8;2.1;;;;;;;11.67;74.36523;1012.595;;;;
2020/02/23 02:04:08;;;;;;;5;2.2;;;;;;;11.69;76.11328;1012.587;;;;
2020/02/23 02:06:33;;;;;;;4.8;2;;;;;;;12.07;74.26074;1012.4;;;;
2020/02/23 02:08:58;;;;;;;4.4;2;;;;;;;11.81;74.41113;1012.436;;;;
2020/02/23 02:11:23;;;;;;;3.8;2.2;;;;;;;11.26;78.58398;1012.281;;;;
2020/02/23 02:13:49;;;;;;;3.8;1.8;;;;;;;12.25;72.79785;1012.195;;;;
2020/02/23 02:16:14;;;;;;;4.3;1.8;;;;;;;11.7;75.21875;1012.187;;;;
2020/02/23 02:18:39;;;;;;;3.6;2;;;;;;;12.46;73.04102;1012.313;;;;
2020/02/23 02:21:04;;;;;;;3.5;2;;;;;;;11.78;75.76172;1012.357;;;;
2020/02/23 02:23:29;;;;;;;3.2;1.7;;;;;;;11.77;76.52734;1012.382;;;;
2020/02/23 02:25:54;;;;;;;3.8;2.1;;;;;;;11.57;77.70996;1012.417;;;;
2020/02/23 02:28:19;;;;;;;4.1;2;;;;;;;11.97;75.81738;1012.403;;;;
2020/02/23 02:30:44;;;;;;;5.6;2.3;;;;;;;11.21;79.52637;1012.447;;;;
2020/02/23 02:35:00;;;;;;;6.2;2.2;;;;;;;11.2;78.49219;1012.446;;;;
2020/02/23 02:35:42;;;;;;;3.8;2;;;;;;;12.49;70.93066;1012.302;;;;
2020/02/23 02:38:04;;;;;;;5;2.4;;;;;;;11.86;75.56836;1012.261;;;;
2020/02/23 02:40:30;;;;;;;3.4;1.5;;;;;;;12.06;74.12305;1012.193;;;;
2020/02/23 02:42:55;;;;;;;3;1.6;;;;;;;12.36;72.02246;1012.093;;;;
2020/02/23 02:45:20;;;;;;;5;2.2;;;;;;;11.57;75.73535;1012.129;;;;
2020/02/23 02:47:45;;;;;;;4.3;1.9;;;;;;;12.1;72.42676;1012.272;;;;
2020/02/23 02:50:10;;;;;;;4.3;2.2;;;;;;;11.74;73.89551;1012.175;;;;
2020/02/23 02:52:35;;;;;;;4.2;2;;;;;;;11.45;77.12598;1012.246;;;;
2020/02/23 02:55:00;;;;;;;6.7;2.2;;;;;;;11.17;77.04199;1012.174;;;;
2020/02/23 02:57:26;;;;;;;6.4;2.1;;;;;;;11.42;76.52441;1012.137;;;;
2020/02/23 02:59:51;;;;;;;3.6;2.1;;;;;;;11.62;75.41309;1012;;;;
2020/02/23 03:02:16;;;;;;;4.5;2.2;;;;;;;11.28;77.22168;1012.022;;;;
2020/02/23 03:04:41;;;;;;;3.3;2;;;;;;;11.34;77.08496;1012.012;;;;
2020/02/23 03:07:06;;;;;;;3.5;1.8;;;;;;;12.25;71.68262;1011.889;;;;
2020/02/23 03:09:31;;;;;;;3.6;1.9;;;;;;;11.7;74.88672;1011.867;;;;
2020/02/23 03:11:56;;;;;;;4.4;2.1;;;;;;;11.46;76.25684;1011.89;;;;
2020/02/23 03:14:21;;;;;;;3.4;1.8;;;;;;;11.4;77.71387;1011.977;;;;
2020/02/23 03:16:46;;;;;;;3.8;1.8;;;;;;;11.33;78.37793;1012.03;;;;
2020/02/23 03:19:11;;;;;;;4.5;1.9;;;;;;;11.33;77.35547;1011.909;;;;
2020/02/23 03:21:37;;;;;;;4.6;2;;;;;;;11.19;78.12402;1011.958;;;;
2020/02/23 03:24:02;;;;;;;4.8;2;;;;;;;11.78;75.52051;1011.936;;;;
2020/02/23 03:26:27;;;;;;;3.5;1.6;;;;;;;12.16;73.34668;1011.843;;;;
2020/02/23 03:28:52;;;;;;;2.8;1.6;;;;;;;12.2;72.61719;1011.777;;;;
2020/02/23 03:31:17;;;;;;;4.4;1.9;;;;;;;11.58;76.58789;1011.863;;;;
2020/02/23 03:33:42;;;;;;;3.6;1.7;;;;;;;11.78;74.65918;1011.859;;;;
2020/02/23 03:37:10;;;;;;;3.3;1.6;;;;;;;12.41;71.79004;1011.624;;;;
2020/02/23 03:38:32;;;;;;;3.5;1.6;;;;;;;12.2;73.33008;1011.797;;;;
2020/02/23 03:40:57;;;;;;;3.6;1.6;;;;;;;11.92;75.12012;1011.709;;;;
2020/02/23 03:43:23;;;;;;;3.2;1.4;;;;;;;12;74.99707;1011.747;;;;
2020/02/23 03:45:48;;;;;;;3.2;1.8;;;;;;;11.68;76.74219;1011.69;;;;
2020/02/23 03:48:13;;;;;;;3;1.6;;;;;;;12.43;71.64355;1011.66;;;;
2020/02/23 03:50:38;;;;;;;2.7;1.5;;;;;;;12.06;73.4668;1011.559;;;;
2020/02/23 03:53:03;;;;;;;2.9;1.7;;;;;;;12.28;72.30762;1011.45;;;;
2020/02/23 03:55:28;;;;;;;3.5;1.8;;;;;;;12.17;73.51953;1011.574;;;;
2020/02/23 03:57:53;;;;;;;3.7;1.5;;;;;;;12.3;73.3916;1011.457;;;;
2020/02/23 04:02:43;;;;;;;2.2;1.6;;;;;;;12.33;73.12109;1011.387;;;;
2020/02/23 04:05:08;;;;;;;4.5;1.6;;;;;;;12.14;74.76758;1011.345;;;;
2020/02/23 04:07:33;;;;;;;2.1;1.4;;;;;;;12.08;74.46875;1011.451;;;;
2020/02/23 04:09:58;;;;;;;3;1.4;;;;;;;12.87;70.47461;1011.35;;;;
2020/02/23 04:12:23;;;;;;;3.3;1.5;;;;;;;12.34;72.94043;1011.172;;;;
2020/02/23 04:14:48;;;;;;;2.5;1.2;;;;;;;11.65;76.01465;1010.92;;;;
2020/02/23 04:17:13;;;;;;;3.1;1.5;;;;;;;11.84;75.68066;1010.867;;;;
2020/02/23 04:19:39;;;;;;;3.1;1.5;;;;;;;11.47;78.01367;1010.944;;;;
2020/02/23 04:22:04;;;;;;;1.6;1.3;;;;;;;11.88;74.79297;1010.824;;;;
2020/02/23 04:24:29;;;;;;;1.8;1.2;;;;;;;12.26;72.90234;1010.895;;;;
2020/02/23 04:26:54;;;;;;;2.1;1.4;;;;;;;11.79;75.68262;1010.944;;;;
2020/02/23 04:29:19;;;;;;;3;1.3;;;;;;;12.15;74.5293;1010.847;;;;
2020/02/23 04:31:44;;;;;;;2.2;1.3;;;;;;;12.82;70.64844;1010.899;;;;
2020/02/23 04:34:10;;;;;;;2.5;1;;;;;;;12.2;73.70898;1010.89;;;;
2020/02/23 04:36:34;;;;;;;2.7;1.1;;;;;;;12.52;70.77441;1010.707;;;;
2020/02/23 04:38:59;;;;;;;2;1.2;;;;;;;12.14;73.16992;1010.643;;;;
2020/02/23 04:41:25;;;;;;;1.9;1.1;;;;;;;12.08;74.26367;1010.513;;;;
2020/02/23 04:43:50;;;;;;;1.8;1.1;;;;;;;12.67;71.75293;1010.393;;;;
2020/02/23 04:46:15;;;;;;;1.4;1.1;;;;;;;12.51;71.26758;1010.249;;;;
2020/02/23 04:48:40;;;;;;;1.8;1;;;;;;;12.36;73.40234;1010.342;;;;
2020/02/23 04:51:05;;;;;;;2.4;1.1;;;;;;;11.92;75.19922;1010.41;;;;
2020/02/23 04:53:30;;;;;;;1.3;1;;;;;;;12.4;73.00684;1010.368;;;;
2020/02/23 04:55:55;;;;;;;1.3;1;;;;;;;11.88;75.06641;1010.4;;;;
2020/02/23 04:58:20;;;;;;;1.6;1;;;;;;;12.51;71.18359;1010.513;;;;
2020/02/23 05:00:45;;;;;;;2;1;;;;;;;12.5;71.73535;1010.482;;;;
2020/02/23 05:03:10;;;;;;;2.2;1.2;;;;;;;12.36;72.41504;1010.426;;;;
2020/02/23 05:05:35;;;;;;;2.2;1;;;;;;;12.56;71.45703;1010.507;;;;
2020/02/23 05:08:00;;;;;;;1.7;1.1;;;;;;;12.96;68.97949;1010.389;;;;
2020/02/23 05:10:26;;;;;;;1.6;1;;;;;;;13.05;69.64844;1010.34;;;;
2020/02/23 05:12:51;;;;;;;1.4;1;;;;;;;12.66;70.99219;1010.258;;;;
2020/02/23 05:15:16;;;;;;;2.1;1;;;;;;;13.22;67.02832;1009.977;;;;
2020/02/23 05:17:41;;;;;;;1.4;1;;;;;;;12.81;69.3584;1009.898;;;;
2020/02/23 05:20:06;;;;;;;1.8;0.9;;;;;;;13.31;66.9502;1010.049;;;;
2020/02/23 05:22:31;;;;;;;1.4;1;;;;;;;13.48;65.53516;1009.916;;;;
2020/02/23 05:24:56;;;;;;;1.8;1;;;;;;;13.19;67.24316;1009.899;;;;
2020/02/23 05:27:21;;;;;;;2.8;1.1;;;;;;;12.79;69.06738;1009.865;;;;
2020/02/23 05:29:46;;;;;;;3.1;1.1;;;;;;;13.25;67.58496;1009.768;;;;
2020/02/23 05:32:16;;;;;;;2;1.2;;;;;;;13.59;66.69336;1009.785;;;;
2020/02/23 05:34:36;;;;;;;2.9;1.2;;;;;;;12.72;68.48242;1009.429;;;;
2020/02/23 05:37:02;;;;;;;2.5;1.1;;;;;;;12.86;68.03125;1009.391;;;;
2020/02/23 05:39:27;;;;;;;3;1.3;;;;;;;12.82;67.70215;1009.364;;;;
2020/02/23 05:41:52;;;;;;;2.5;1.2;;;;;;;12.76;67.31445;1009.448;;;;
2020/02/23 05:44:17;;;;;;;3.2;1.4;;;;;;;13.43;64.80176;1009.386;;;;
2020/02/23 05:46:42;;;;;;;2.6;1.5;;;;;;;12.75;66.91016;1009.388;;;;
2020/02/23 05:49:07;;;;;;;3.1;1.4;;;;;;;12.43;68.30859;1009.454;;;;
2020/02/23 05:51:32;;;;;;;2.1;1.5;;;;;;;12.76;66.47461;1009.379;;;;
2020/02/23 05:53:57;;;;;;;2.5;1.3;;;;;;;13.01;65.74121;1009.528;;;;
2020/02/23 05:56:22;;;;;;;2.7;1.4;;;;;;;13.19;64.43262;1009.407;;;;
2020/02/23 05:58:48;;;;;;;3.3;1.5;;;;;;;13.32;64.03613;1009.596;;;;
2020/02/23 06:01:13;;;;;;;2.2;1.3;;;;;;;12.78;65.69629;1009.573;;;;
2020/02/23 06:03:38;;;;;;;2.8;1.4;;;;;;;13.21;63.84863;1009.457;;;;
2020/02/23 06:06:03;;;;;;;3.1;1.4;;;;;;;12.73;66.05566;1009.484;;;;
2020/02/23 06:08:28;;;;;;;3.2;1.4;;;;;;;13.14;64.11328;1009.535;;;;
2020/02/23 06:10:53;;;;;;;3.3;1.6;;;;;;;13.7;61.94727;1009.487;;;;
2020/02/23 06:13:18;;;;;;;4.2;1.5;;;;;;;12.32;67.31445;1009.537;;;;
2020/02/23 06:15:43;;;;;;;3.5;1.6;;;;;;;12.19;68.33008;1009.473;;;;
2020/02/23 06:18:08;;;;;;;3.2;1.9;;;;;;;12.1;68.69434;1009.411;;;;
2020/02/23 06:20:33;;;;;;;4.9;1.9;;;;;;;11.95;69.34766;1009.461;;;;
2020/02/23 06:22:58;;;;;;;4.2;1.7;;;;;;;12.45;67.24219;1009.315;;;;
2020/02/23 06:25:23;;;;;;;4.2;1.8;;;;;;;12.05;69.07617;1009.405;;;;
2020/02/23 06:27:48;;;;;;;4;1.9;;;;;;;11.96;69.625;1009.491;;;;
2020/02/23 06:30:14;;;;;;;3.9;1.8;;;;;;;12.41;67.60449;1009.184;;;;
2020/02/23 06:32:39;;;;;;;3.1;1.7;;;;;;;12.07;69.26367;1009.256;;;;
2020/02/23 06:35:04;;;;;;;2.7;1.5;;;;;;;12.63;66.6377;1009.365;;;;
2020/02/23 06:37:29;;;;;;;6;1.8;;;;;;;12.41;67.58203;1009.222;;;;
2020/02/23 06:39:54;;;;;;;4.1;1.8;;;;;;;12.18;68.63867;1009.308;;;;
2020/02/23 06:42:19;;;;;;;3.7;1.8;;;;;;;12.3;68;1009.383;;;;
2020/02/23 06:44:51;;;;;;;4.1;1.6;;;;;;;12.3;68.73633;1009.483;;;;
2020/02/23 06:47:24;;;;;;;5.3;1.8;;;;;;;12.11;70.02734;1009.399;;;;
2020/02/23 06:49:34;;;;;;;3.1;1.6;;;;;;;12.37;68.59961;1009.398;;;;
2020/02/23 06:51:59;;;;;;;5.1;1.8;;;;;;;12.14;69.66504;1009.232;;;;
2020/02/23 06:54:25;;;;;;;4.9;1.9;;;;;;;11.83;71.24707;1009.427;;;;
2020/02/23 06:56:50;;;;;;;5.6;2.1;;;;;;;11.8;71.71191;1009.365;;;;
2020/02/23 06:59:15;;;;;;;3.8;2.1;;;;;;;11.58;72.82324;1009.317;;;;
2020/02/23 07:01:40;;;;;;;3.6;1.7;;;;;;;11.48;74.06836;1009.252;;;;
2020/02/23 07:04:05;;;;;;;4.5;1.7;;;;;;;12.02;72.55176;1009.087;;;;
2020/02/23 07:06:30;;;;;;;3.9;1.9;;;;;;;11.95;73.54004;1009.038;;;;
2020/02/23 07:08:55;;;;;;;4.7;2;;;;;;;11.32;77.65332;1009.143;;;;
2020/02/23 07:11:20;;;;;;;5.1;2.1;;;;;;;11.17;80.04492;1009.14;;;;
2020/02/23 07:13:45;;;;;;;4.9;1.9;;;;;;;11.53;78.74609;1009.074;;;;
2020/02/23 07:16:11;;;;;;;4.4;2;;;;;;;11.73;76.60254;1008.837;;;;
2020/02/23 07:18:36;;;;;;;5.9;2;;;;;;;11.4;79.87109;1008.843;;;;
2020/02/23 07:21:01;;;;;;;5;2;;;;;;;11.46;78.61914;1008.646;;;;
2020/02/23 07:23:26;;;;;;;3.8;1.8;;;;;;;11.38;80.17676;1008.86;;;;
2020/02/23 07:25:51;;;;;;;5;2.2;;;;;;;11.34;79.95215;1008.752;;;;
2020/02/23 07:28:16;;;;;;;5.7;1.9;;;;;;;10.82;82.98145;1008.723;;;;
2020/02/23 07:30:41;;;;;;;4.1;2.3;;;;;;;10.84;83.53516;1008.663;;;;
2020/02/23 07:33:07;;;;;;;4.7;2;;;;;;;11.53;79.18262;1008.627;;;;
2020/02/23 07:35:32;;;;;;;5.6;2;;;;;;;11.07;81.34473;1008.819;;;;
2020/02/23 07:37:57;;;;;;;4.4;1.9;;;;;;;12.03;76.25195;1008.7;;;;
2020/02/23 07:40:22;;;;;;;4.7;1.9;;;;;;;12.35;74.71094;1008.604;;;;
2020/02/23 07:42:47;;;;;;;4.1;1.7;;;;;;;11.74;77.32617;1008.668;;;;
2020/02/23 07:45:12;;;;;;;4.9;1.9;;;;;;;11.74;77.52148;1008.428;;;;
2020/02/23 07:47:37;;;;;;;5.9;2.1;;;;;;;11.46;78.36621;1008.283;;;;
2020/02/23 07:50:02;;;;;;;4.3;1.9;;;;;;;11.88;76.16895;1008.239;;;;
2020/02/23 07:52:28;;;;;;;3.8;1.8;;;;;;;11.91;75.48633;1008.201;;;;
2020/02/23 07:54:53;;;;;;;6;2;;;;;;;12.25;74.0498;1008.27;;;;
2020/02/23 07:57:18;;;;;;;4.6;2;;;;;;;12.73;71.33691;1008.241;;;;
2020/02/23 07:59:43;;;;;;;4.8;1.7;;;;;;;12.68;71.15625;1008.085;;;;
2020/02/23 08:02:08;;;;;;;4.4;1.8;;;;;;;12.46;71.7168;1008.152;;;;
2020/02/23 08:04:34;;;;;;;4.1;1.8;;;;;;;12.22;72.28711;1008.046;;;;
2020/02/23 08:06:59;;;;;;;4.7;1.9;;;;;;;12.45;70.43945;1007.964;;;;
2020/02/23 08:09:24;;;;;;;3.6;1.9;;;;;;;12.42;70.19336;1007.926;;;;
2020/02/23 08:11:49;;;;;;;3.8;1.8;;;;;;;12.79;68.40039;1007.715;;;;
2020/02/23 08:14:14;;;;;;;3.6;1.8;;;;;;;12.88;67.58594;1007.553;;;;
2020/02/23 08:16:39;;;;;;;5.5;2.1;;;;;;;12.84;67.79883;1007.533;;;;
2020/02/23 08:19:04;;;;;;;5.1;1.7;;;;;;;12.53;68.91113;1007.587;;;;
2020/02/23 08:21:30;;;;;;;4.3;2;;;;;;;12.79;67.87109;1007.506;;;;
2020/02/23 08:23:55;;;;;;;4.1;1.8;;;;;;;13.2;66.45996;1007.301;;;;
2020/02/23 08:26:20;;;;;;;4.7;1.7;;;;;;;13.1;66.99707;1007.37;;;;
2020/02/23 08:28:45;;;;;;;3.9;1.6;;;;;;;13.65;64.56934;1007.163;;;;
2020/02/23 08:31:10;;;;;;;3.4;1.7;;;;;;;13.59;64.34277;1007.227;;;;
2020/02/23 08:33:35;;;;;;;4.7;1.8;;;;;;;13.25;66.17969;1007.279;;;;
2020/02/23 08:36:00;;;;;;;4.9;1.8;;;;;;;13.25;66.49121;1007.261;;;;
2020/02/23 08:38:26;;;;;;;3.7;1.7;;;;;;;13.79;64.29004;1007.28;;;;
2020/02/23 08:40:51;;;;;;;4.1;1.5;;;;;;;14.14;62.48438;1006.47;;;;
2020/02/23 08:43:16;;;;;;;3.7;1.5;;;;;;;13.75;64.2041;1007.185;;;;
2020/02/23 08:45:41;;;;;;;4.5;1.5;;;;;;;13.8;63.86621;1006.978;;;;
2020/02/23 08:48:06;;;;;;;3;1.6;;;;;;;13.93;63.29688;1007.005;;;;
2020/02/23 08:50:32;;;;;;;3.6;1.9;;;;;;;13.93;64.20605;1007.191;;;;
2020/02/23 08:52:57;;;;;;;3.5;1.6;;;;;;;13.92;63.62793;1007.052;;;;
2020/02/23 08:55:22;;;;;;;3.9;1.7;;;;;;;13.67;64.66504;1007.032;;;;
2020/02/23 08:57:47;;;;;;;3.4;1.6;;;;;;;13.68;64.53906;1007.005;;;;
2020/02/23 09:00:16;;;;;;;4.2;1.7;;;;;;;13.66;64.61719;1006.803;;;;
2020/02/23 09:02:37;;;;;;;2.9;1.7;;;;;;;13.86;63.42383;1006.762;;;;
2020/02/23 09:05:02;;;;;;;2.9;1.6;;;;;;;13.88;63.56445;1006.727;;;;
2020/02/23 09:07:28;;;;;;;3.6;1.6;;;;;;;13.83;63.74316;1006.558;;;;
2020/02/23 09:09:53;;;;;;;4.7;1.9;;;;;;;13.97;63.14063;1006.742;;;;
2020/02/23 09:12:18;;;;;;;4.8;2;;;;;;;13.73;63.84375;1006.605;;;;
2020/02/23 09:14:43;;;;;;;3.6;1.7;;;;;;;14.04;62.89648;1006.667;;;;
2020/02/23 09:17:09;;;;;;;3.8;2;;;;;;;14.61;60.60938;1006.716;;;;
2020/02/23 09:19:34;;;;;;;3.7;1.8;;;;;;;14.09;62.95996;1006.646;;;;
2020/02/23 09:21:59;;;;;;;3.8;1.7;;;;;;;14.27;61.79785;1006.607;;;;
2020/02/23 09:24:24;;;;;;;4.3;1.8;;;;;;;14.79;59.65137;1006.755;;;;
2020/02/23 09:26:49;;;;;;;3.3;1.6;;;;;;;14.65;60.03711;1006.702;;;;
2020/02/23 09:29:14;;;;;;;4.2;1.8;;;;;;;14.47;61.03906;1006.596;;;;
2020/02/23 09:31:39;;;;;;;6.2;2.1;;;;;;;14.51;60.56055;1006.691;;;;
2020/02/23 09:34:05;;;;;;;3.3;1.6;;;;;;;14.94;59.00195;1006.376;;;;
2020/02/23 09:36:30;;;;;;;3.5;1.6;;;;;;;14.74;59.56445;1006.585;;;;
2020/02/23 09:38:55;;;;;;;3.8;1.9;;;;;;;14.91;58.60449;1006.454;;;;
2020/02/23 09:41:20;;;;;;;3.4;1.6;;;;;;;14.43;60.15625;1006.59;;;;
2020/02/23 09:43:45;;;;;;;3.8;1.9;;;;;;;14.33;60.13184;1006.712;;;;
2020/02/23 09:46:11;;;;;;;3.5;1.6;;;;;;;14.6;59.5918;1006.616;;;;
2020/02/23 09:48:36;;;;;;;3.5;1.6;;;;;;;14.76;58.72266;1006.512;;;;
2020/02/23 09:51:01;;;;;;;3.3;1.7;;;;;;;14.93;57.70605;1006.618;;;;
2020/02/23 09:53:26;;;;;;;3.4;1.8;;;;;;;14.55;59.06445;1006.594;;;;
2020/02/23 09:55:51;;;;;;;3.9;1.8;;;;;;;14.54;58.78613;1006.623;;;;
2020/02/23 09:58:16;;;;;;;4.7;1.8;;;;;;;14.84;57.59961;1006.48;;;;
2020/02/23 10:00:42;;;;;;;5.9;2;;;;;;;15.02;56.93066;1006.385;;;;
2020/02/23 10:03:07;;;;;;;3.3;1.6;;;;;;;14.95;56.875;1006.284;;;;
2020/02/23 10:05:32;;;;;;;4.6;1.9;;;;;;;14.54;57.87305;1006.31;;;;
2020/02/23 10:07:57;;;;;;;3.6;1.5;;;;;;;14.76;56.68848;1006.519;;;;
2020/02/23 10:10:22;;;;;;;3.4;1.6;;;;;;;15.15;55.73242;1006.289;;;;
2020/02/23 10:12:48;;;;;;;4.2;1.7;;;;;;;14.68;56.43555;1006.229;;;;
2020/02/23 10:15:13;;;;;;;3.5;1.8;;;;;;;14.59;56.40039;1006.393;;;;
2020/02/23 10:17:38;;;;;;;4.7;1.9;;;;;;;14.44;56.91309;1006.422;;;;
2020/02/23 10:20:03;;;;;;;3.3;1.6;;;;;;;14.55;55.83008;1006.386;;;;
2020/02/23 10:22:28;;;;;;;3.5;1.7;;;;;;;14.67;55.6709;1006.441;;;;
2020/02/23 10:24:53;;;;;;;2.9;1.5;;;;;;;14.84;54.89453;1006.319;;;;
2020/02/23 10:27:18;;;;;;;4.4;1.7;;;;;;;15.11;54.56055;1006.347;;;;
2020/02/23 10:29:43;;;;;;;4.1;1.9;;;;;;;14.91;54.89258;1006.309;;;;
2020/02/23 10:32:08;;;;;;;3.6;1.7;;;;;;;14.57;55.84473;1006.384;;;;
2020/02/23 10:34:34;;;;;;;4.4;1.9;;;;;;;15.11;54.21191;1006.233;;;;
2020/02/23 10:36:59;;;;;;;4.6;1.8;;;;;;;15.13;54.44531;1006.254;;;;
2020/02/23 10:39:24;;;;;;;3.5;1.7;;;;;;;15.03;53.95898;1006.572;;;;
2020/02/23 10:41:49;;;;;;;4;1.8;;;;;;;15.02;53.99219;1006.367;;;;
2020/02/23 10:44:14;;;;;;;3.5;1.7;;;;;;;15.15;53.78809;1006.39;;;;
2020/02/23 10:46:40;;;;;;;3.4;1.7;;;;;;;15.27;53.03906;1006.348;;;;
2020/02/23 10:49:05;;;;;;;3.1;1.7;;;;;;;16.03;51.04492;1006.34;;;;
2020/02/23 10:51:30;;;;;;;4.6;1.9;;;;;;;15.34;52.44531;1006.412;;;;
2020/02/23 10:53:55;;;;;;;4.4;2;;;;;;;15.23;53.39453;1006.242;;;;
2020/02/23 10:56:20;;;;;;;4.3;1.9;;;;;;;15.18;52.69336;1006.17;;;;
2020/02/23 10:58:46;;;;;;;4.1;1.7;;;;;;;14.94;53.94824;1006.248;;;;
2020/02/23 11:01:10;;;;;;;4.6;2;;;;;;;14.78;53.59375;1006.186;;;;
2020/02/23 11:03:35;;;;;;;5.7;2.1;;;;;;;15.45;51.69531;1006.125;;;;
2020/02/23 11:06:00;;;;;;;4.4;2.1;;;;;;;15.23;51.91211;1006.185;;;;
2020/02/23 11:08:26;;;;;;;5;2.1;;;;;;;15.3;51.62012;1006.032;;;;
2020/02/23 11:10:51;;;;;;;5.5;2;;;;;;;15.24;51.12598;1005.832;;;;
2020/02/23 11:13:16;;;;;;;5.4;2;;;;;;;14.3;54.44629;1006.048;;;;
2020/02/23 11:15:41;;;;;;;6.1;2.4;;;;;;;13.93;55.80762;1005.891;;;;
2020/02/23 11:18:06;;;;;;;6.2;2.1;;;;;;;13.77;56.23828;1006.181;;;;
2020/02/23 11:20:31;;;;;;;5.4;1.9;;;;;;;13.72;55.67676;1006.008;;;;
2020/02/23 11:22:56;;;;;;;4.1;2.1;;;;;;;13.74;56.1875;1006.231;;;;
2020/02/23 11:25:21;;;;;;;3.2;2.1;;;;;;;13.6;56.12402;1006.151;;;;
2020/02/23 11:27:46;;;;;;;4.4;2.2;;;;;;;13.62;56.49414;1006.163;;;;
2020/02/23 11:30:12;;;;;;;4;2.2;;;;;;;13.77;55.74219;1006.135;;;;
2020/02/23 11:32:37;;;;;;;5.3;2.3;;;;;;;13.62;56.22949;1005.82;;;;
2020/02/23 11:35:02;;;;;;;5.3;2.2;;;;;;;13.67;56.47754;1005.901;;;;
2020/02/23 11:37:27;;;;;;;5;2.3;;;;;;;13.52;56.52832;1005.965;;;;
2020/02/23 11:39:53;;;;;;;4.4;2.2;;;;;;;13.51;56.74512;1005.966;;;;
2020/02/23 11:42:18;;;;;;;5.7;2.1;;;;;;;13.48;57.10938;1005.923;;;;
2020/02/23 11:44:43;;;;;;;4.2;2.2;;;;;;;13.65;57.24805;1005.879;;;;
2020/02/23 11:47:08;;;;;;;4.6;2.2;;;;;;;13.63;56.80762;1005.783;;;;
2020/02/23 11:49:33;;;;;;;6;2.3;;;;;;;13.65;56.68262;1005.741;;;;
2020/02/23 11:51:58;;;;;;;5.2;2.3;;;;;;;13.72;56.53125;1005.776;;;;
2020/02/23 11:54:24;;;;;;;4.4;2.2;;;;;;;13.68;56.7207;1005.358;;;;
2020/02/23 11:56:49;;;;;;;5;2.4;;;;;;;13.55;57.1543;1005.66;;;;
2020/02/23 11:59:14;;;;;;;3.9;2.3;;;;;;;13.62;57.0127;1005.77;;;;
2020/02/23 12:01:39;;;;;;;3.7;2.2;;;;;;;13.54;57.62402;1005.516;;;;
2020/02/23 12:04:04;;;;;;;5.5;2.3;;;;;;;13.63;56.81934;1005.619;;;;
2020/02/23 12:06:29;;;;;;;7;2.5;;;;;;;13.56;57.09766;1005.566;;;;
2020/02/23 12:08:54;;;;;;;5.7;2.4;;;;;;;13.59;57.22852;1005.401;;;;
2020/02/23 12:11:20;;;;;;;4.7;2.3;;;;;;;13.57;57.57129;1005.539;;;;
2020/02/23 12:13:45;;;;;;;3.7;2.1;;;;;;;13.46;57.93652;1005.387;;;;
2020/02/23 12:16:10;;;;;;;5.7;2.5;;;;;;;13.47;58.16895;1005.45;;;;
2020/02/23 12:18:35;;;;;;;5.7;2.3;;;;;;;13.52;58.35938;1005.333;;;;
2020/02/23 12:21:00;;;;;;;5.2;2.4;;;;;;;13.55;58.49121;1005.378;;;;
2020/02/23 12:23:25;;;;;;;5.8;2.6;;;;;;;13.58;58.5293;1005.359;;;;
2020/02/23 12:25:50;;;;;;;4.1;2.3;;;;;;;13.64;59.0459;1005.344;;;;
2020/02/23 12:28:16;;;;;;;4.6;2.1;;;;;;;13.7;59.44531;1005.397;;;;
2020/02/23 12:30:41;;;;;;;5.2;2.4;;;;;;;13.79;60.15039;1005.394;;;;
2020/02/23 12:33:06;;;;;;;4.3;2.2;;;;;;;13.91;60.52441;1005.323;;;;
2020/02/23 12:35:31;;;;;;;5.1;2.2;;;;;;;14.08;60.89258;1005.275;;;;
2020/02/23 12:37:56;;;;;;;3.8;2.1;;;;;;;14.38;61.58301;1005.214;;;;
2020/02/23 12:40:21;;;;;;;4;2;;;;;;;14.49;61.67773;1005.331;;;;
2020/02/23 12:42:47;;;;;;;6.6;2.5;;;;;;;14.67;61.86426;1005.215;;;;
2020/02/23 12:45:12;;;;;;;5.7;1.9;;;;;;;14.86;61.56934;1005.348;;;;
2020/02/23 12:47:37;;;;;;;5.3;2.3;;;;;;;14.99;61.40332;1005.28;;;;
2020/02/23 12:50:02;;;;;;;3.7;1.9;;;;;;;15.07;61.01953;1005.231;;;;
2020/02/23 12:52:27;;;;;;;3.3;1.7;;;;;;;15.28;60.80664;1005.125;;;;
2020/02/23 12:54:53;;;;;;;4.7;2.1;;;;;;;15.35;60.63086;1005.163;;;;
2020/02/23 12:57:18;;;;;;;3.3;1.8;;;;;;;15.41;60.66211;1004.975;;;;
2020/02/23 12:59:43;;;;;;;3.4;1.6;;;;;;;15.46;60.43848;1004.555;;;;
2020/02/23 13:02:08;;;;;;;3.4;1.6;;;;;;;15.55;60.37012;1004.744;;;;
2020/02/23 13:04:33;;;;;;;5.2;2.1;;;;;;;15.75;60.2334;1004.902;;;;
2020/02/23 13:06:58;;;;;;;3.6;2;;;;;;;15.73;60.5332;1005.108;;;;
2020/02/23 13:09:23;;;;;;;4.1;1.9;;;;;;;15.96;59.78906;1005.238;;;;
2020/02/23 13:11:48;;;;;;;3.5;1.8;;;;;;;15.78;60.24023;1004.917;;;;
2020/02/23 13:14:14;;;;;;;3.5;1.8;;;;;;;15.54;61.21387;1005.233;;;;
2020/02/23 13:16:39;;;;;;;2.9;1.7;;;;;;;15.57;60.88184;1005.149;;;;
2020/02/23 13:19:04;;;;;;;4.5;1.9;;;;;;;15.51;61.46387;1005.225;;;;
2020/02/23 13:21:43;;;;;;;2.6;1.5;;;;;;;15.52;61.66211;1005.202;;;;
2020/02/23 13:24:08;;;;;;;3.9;1.9;;;;;;;15.36;62.25195;1005.205;;;;
2020/02/23 13:26:34;;;;;;;4.3;1.8;;;;;;;15.32;62.44531;1005.072;;;;
2020/02/23 13:28:59;;;;;;;4.8;1.6;;;;;;;15.52;61.87012;1004.957;;;;
2020/02/23 13:33:49;;;;;;;2.8;1.5;;;;;;;15.52;62.13672;1004.887;;;;
2020/02/23 13:36:14;;;;;;;3.9;1.6;;;;;;;15.56;61.93359;1005.114;;;;
2020/02/23 13:38:39;;;;;;;2.9;1.5;;;;;;;15.53;62.46191;1005.13;;;;
2020/02/23 13:41:04;;;;;;;2.2;1.5;;;;;;;15.45;62.79883;1005.006;;;;
2020/02/23 13:43:29;;;;;;;3.7;1.6;;;;;;;15.37;63.42383;1005.283;;;;
2020/02/23 13:45:54;;;;;;;3.7;1.5;;;;;;;15.46;63.33203;1004.993;;;;
2020/02/23 13:50:45;;;;;;;2.5;1.5;;;;;;;15.42;63.43066;1004.547;;;;
2020/02/23 13:53:10;;;;;;;3.3;1.6;;;;;;;15.26;63.70801;1004.468;;;;
2020/02/23 13:55:35;;;;;;;3.6;1.6;;;;;;;15.3;63.87695;1004.303;;;;
2020/02/23 13:58:00;;;;;;;3.2;1.6;;;;;;;15.24;64.19141;1004.244;;;;
2020/02/23 14:00:26;;;;;;;2.9;1.6;;;;;;;15.27;63.87305;1004.23;;;;
2020/02/23 14:02:51;;;;;;;3.2;1.7;;;;;;;15.24;64.11133;1004.422;;;;
2020/02/23 14:05:16;;;;;;;3.8;1.5;;;;;;;15.18;64.4248;1004.179;;;;
2020/02/23 14:07:41;;;;;;;2.8;1.5;;;;;;;15.12;64.77539;1004.304;;;;
2020/02/23 14:10:06;;;;;;;4.8;1.6;;;;;;;15.15;64.82617;1004.351;;;;
2020/02/23 14:12:31;;;;;;;3.2;1.7;;;;;;;15.18;64.9707;1004.074;;;;
2020/02/23 14:14:56;;;;;;;2.7;1.5;;;;;;;15.08;65.33594;1004.116;;;;
2020/02/23 14:17:27;;;;;;;3.1;1.4;;;;;;;15.02;65.8125;1004.207;;;;
2020/02/23 14:19:52;;;;;;;4.4;1.5;;;;;;;15.01;65.98535;1004.304;;;;